sensor_id;sensor_type;location;lat;lon;timestamp;P1;durP1;ratioP1;P2;durP2;ratioP2
29688;SDS011;16600;47.444;8.334;2024-03-07T00:00:19;34.15;;;23.00;;
29688;SDS011;16600;47.444;8.334;2024-03-07T00:02:47;26.25;;;23.55;;
29688;SDS011;16600;47.444;8.334;2024-03-07T00:05:17;28.30;;;24.20;;
29688;SDS011;16600;47.444;8.334;2024-03-07T00:07:47;28.00;;;22.98;;
29688;SDS011;16600;47.444;8.334;2024-03-07T00:10:13;27.67;;;23.23;;
29688;SDS011;16600;47.444;8.334;2024-03-07T00:12:43;29.45;;;24.70;;
29688;SDS011;16600;47.444;8.334;2024-03-07T00:15:10;26.58;;;23.50;;
29688;SDS011;16600;47.444;8.334;2024-03-07T00:17:39;28.20;;;22.58;;
29688;SDS011;16600;47.444;8.334;2024-03-07T00:20:09;27.23;;;23.50;;
29688;SDS011;16600;47.444;8.334;2024-03-07T00:22:40;37.90;;;21.98;;
29688;SDS011;16600;47.444;8.334;2024-03-07T00:25:12;25.02;;;22.13;;
29688;SDS011;16600;47.444;8.334;2024-03-07T00:27:48;29.58;;;23.85;;
29688;SDS011;16600;47.444;8.334;2024-03-07T00:30:15;25.92;;;22.83;;
29688;SDS011;16600;47.444;8.334;2024-03-07T00:32:47;26.77;;;22.95;;
29688;SDS011;16600;47.444;8.334;2024-03-07T00:35:16;27.83;;;22.55;;
29688;SDS011;16600;47.444;8.334;2024-03-07T00:37:45;24.88;;;22.20;;
29688;SDS011;16600;47.444;8.334;2024-03-07T00:40:17;25.80;;;22.00;;
29688;SDS011;16600;47.444;8.334;2024-03-07T00:42:43;30.33;;;22.90;;
29688;SDS011;16600;47.444;8.334;2024-03-07T00:45:10;24.40;;;21.63;;
29688;SDS011;16600;47.444;8.334;2024-03-07T00:47:36;26.30;;;22.38;;
29688;SDS011;16600;47.444;8.334;2024-03-07T00:50:03;25.10;;;21.02;;
29688;SDS011;16600;47.444;8.334;2024-03-07T00:52:30;28.33;;;23.73;;
29688;SDS011;16600;47.444;8.334;2024-03-07T00:54:59;27.00;;;23.05;;
29688;SDS011;16600;47.444;8.334;2024-03-07T00:57:28;26.23;;;23.15;;
29688;SDS011;16600;47.444;8.334;2024-03-07T00:59:59;27.75;;;23.17;;
29688;SDS011;16600;47.444;8.334;2024-03-07T01:03:01;25.27;;;22.40;;
29688;SDS011;16600;47.444;8.334;2024-03-07T01:05:28;27.60;;;23.38;;
29688;SDS011;16600;47.444;8.334;2024-03-07T01:07:54;29.77;;;21.75;;
29688;SDS011;16600;47.444;8.334;2024-03-07T01:10:27;25.95;;;22.13;;
29688;SDS011;16600;47.444;8.334;2024-03-07T01:13:06;31.00;;;22.83;;
29688;SDS011;16600;47.444;8.334;2024-03-07T01:15:34;25.83;;;22.52;;
29688;SDS011;16600;47.444;8.334;2024-03-07T01:18:00;27.25;;;23.13;;
29688;SDS011;16600;47.444;8.334;2024-03-07T01:20:30;30.83;;;24.52;;
29688;SDS011;16600;47.444;8.334;2024-03-07T01:22:59;28.38;;;24.05;;
29688;SDS011;16600;47.444;8.334;2024-03-07T01:25:25;26.27;;;22.48;;
29688;SDS011;16600;47.444;8.334;2024-03-07T01:28:00;25.05;;;22.38;;
29688;SDS011;16600;47.444;8.334;2024-03-07T01:30:29;26.05;;;21.65;;
29688;SDS011;16600;47.444;8.334;2024-03-07T01:32:58;25.05;;;22.33;;
29688;SDS011;16600;47.444;8.334;2024-03-07T01:35:24;32.05;;;24.05;;
29688;SDS011;16600;47.444;8.334;2024-03-07T01:37:56;27.42;;;23.65;;
29688;SDS011;16600;47.444;8.334;2024-03-07T01:40:23;34.60;;;23.35;;
29688;SDS011;16600;47.444;8.334;2024-03-07T01:42:52;27.15;;;24.30;;
29688;SDS011;16600;47.444;8.334;2024-03-07T01:45:18;25.75;;;23.05;;
29688;SDS011;16600;47.444;8.334;2024-03-07T01:47:51;28.02;;;24.08;;
29688;SDS011;16600;47.444;8.334;2024-03-07T01:50:20;26.67;;;22.38;;
29688;SDS011;16600;47.444;8.334;2024-03-07T01:52:46;29.10;;;23.20;;
29688;SDS011;16600;47.444;8.334;2024-03-07T01:55:17;27.33;;;23.52;;
29688;SDS011;16600;47.444;8.334;2024-03-07T01:57:46;33.72;;;23.15;;
29688;SDS011;16600;47.444;8.334;2024-03-07T02:00:13;24.67;;;22.10;;
29688;SDS011;16600;47.444;8.334;2024-03-07T02:02:39;27.20;;;22.83;;
29688;SDS011;16600;47.444;8.334;2024-03-07T02:05:09;26.65;;;21.70;;
29688;SDS011;16600;47.444;8.334;2024-03-07T02:07:36;23.45;;;20.95;;
29688;SDS011;16600;47.444;8.334;2024-03-07T02:10:05;25.30;;;21.77;;
29688;SDS011;16600;47.444;8.334;2024-03-07T02:12:32;30.35;;;23.70;;
29688;SDS011;16600;47.444;8.334;2024-03-07T02:14:58;26.17;;;21.95;;
29688;SDS011;16600;47.444;8.334;2024-03-07T02:17:25;32.65;;;23.77;;
29688;SDS011;16600;47.444;8.334;2024-03-07T02:19:56;26.10;;;22.65;;
29688;SDS011;16600;47.444;8.334;2024-03-07T02:22:23;24.60;;;21.10;;
29688;SDS011;16600;47.444;8.334;2024-03-07T02:24:52;27.20;;;21.92;;
29688;SDS011;16600;47.444;8.334;2024-03-07T02:27:18;31.95;;;22.50;;
29688;SDS011;16600;47.444;8.334;2024-03-07T02:29:48;24.02;;;21.42;;
29688;SDS011;16600;47.444;8.334;2024-03-07T02:32:17;25.08;;;22.00;;
29688;SDS011;16600;47.444;8.334;2024-03-07T02:34:45;26.90;;;22.85;;
29688;SDS011;16600;47.444;8.334;2024-03-07T02:37:17;28.33;;;21.55;;
29688;SDS011;16600;47.444;8.334;2024-03-07T02:39:48;25.55;;;22.73;;
29688;SDS011;16600;47.444;8.334;2024-03-07T02:42:18;31.23;;;24.25;;
29688;SDS011;16600;47.444;8.334;2024-03-07T02:44:46;26.48;;;21.80;;
29688;SDS011;16600;47.444;8.334;2024-03-07T02:47:13;25.45;;;22.17;;
29688;SDS011;16600;47.444;8.334;2024-03-07T02:49:42;27.95;;;22.15;;
29688;SDS011;16600;47.444;8.334;2024-03-07T02:52:09;24.75;;;22.10;;
29688;SDS011;16600;47.444;8.334;2024-03-07T02:54:36;26.92;;;23.95;;
29688;SDS011;16600;47.444;8.334;2024-03-07T02:57:02;28.35;;;24.75;;
29688;SDS011;16600;47.444;8.334;2024-03-07T02:59:29;29.75;;;25.30;;
29688;SDS011;16600;47.444;8.334;2024-03-07T03:03:02;29.13;;;25.30;;
29688;SDS011;16600;47.444;8.334;2024-03-07T03:05:28;28.08;;;24.73;;
29688;SDS011;16600;47.444;8.334;2024-03-07T03:07:55;27.20;;;24.27;;
29688;SDS011;16600;47.444;8.334;2024-03-07T03:10:22;29.48;;;25.25;;
29688;SDS011;16600;47.444;8.334;2024-03-07T03:12:58;29.83;;;25.55;;
29688;SDS011;16600;47.444;8.334;2024-03-07T03:15:26;32.65;;;27.10;;
29688;SDS011;16600;47.444;8.334;2024-03-07T03:17:53;29.95;;;26.52;;
29688;SDS011;16600;47.444;8.334;2024-03-07T03:20:28;32.05;;;27.98;;
29688;SDS011;16600;47.444;8.334;2024-03-07T03:23:00;35.17;;;29.03;;
29688;SDS011;16600;47.444;8.334;2024-03-07T03:25:29;39.17;;;30.20;;
29688;SDS011;16600;47.444;8.334;2024-03-07T03:27:56;36.20;;;28.98;;
29688;SDS011;16600;47.444;8.334;2024-03-07T03:30:33;34.35;;;30.20;;
29688;SDS011;16600;47.444;8.334;2024-03-07T03:33:03;35.78;;;31.27;;
29688;SDS011;16600;47.444;8.334;2024-03-07T03:35:29;38.92;;;31.00;;
29688;SDS011;16600;47.444;8.334;2024-03-07T03:38:01;40.80;;;31.75;;
29688;SDS011;16600;47.444;8.334;2024-03-07T03:40:30;40.75;;;31.45;;
29688;SDS011;16600;47.444;8.334;2024-03-07T03:42:59;36.40;;;29.92;;
29688;SDS011;16600;47.444;8.334;2024-03-07T03:45:26;31.42;;;26.73;;
29688;SDS011;16600;47.444;8.334;2024-03-07T03:47:53;35.90;;;28.63;;
29688;SDS011;16600;47.444;8.334;2024-03-07T03:50:28;32.45;;;27.20;;
29688;SDS011;16600;47.444;8.334;2024-03-07T03:52:54;30.60;;;26.58;;
29688;SDS011;16600;47.444;8.334;2024-03-07T03:55:20;32.80;;;27.25;;
29688;SDS011;16600;47.444;8.334;2024-03-07T03:57:49;33.67;;;26.52;;
29688;SDS011;16600;47.444;8.334;2024-03-07T04:00:16;32.30;;;28.02;;
29688;SDS011;16600;47.444;8.334;2024-03-07T04:02:43;38.03;;;28.23;;
29688;SDS011;16600;47.444;8.334;2024-03-07T04:05:10;51.92;;;32.53;;
29688;SDS011;16600;47.444;8.334;2024-03-07T04:07:39;33.97;;;28.55;;
29688;SDS011;16600;47.444;8.334;2024-03-07T04:10:08;45.15;;;29.88;;
29688;SDS011;16600;47.444;8.334;2024-03-07T04:12:37;37.53;;;30.48;;
29688;SDS011;16600;47.444;8.334;2024-03-07T04:15:07;39.20;;;28.80;;
29688;SDS011;16600;47.444;8.334;2024-03-07T04:17:35;37.53;;;29.58;;
29688;SDS011;16600;47.444;8.334;2024-03-07T04:20:06;40.03;;;30.38;;
29688;SDS011;16600;47.444;8.334;2024-03-07T04:22:33;48.05;;;33.50;;
29688;SDS011;16600;47.444;8.334;2024-03-07T04:25:05;36.28;;;29.10;;
29688;SDS011;16600;47.444;8.334;2024-03-07T04:27:33;35.63;;;28.67;;
29688;SDS011;16600;47.444;8.334;2024-03-07T04:30:03;38.00;;;29.70;;
29688;SDS011;16600;47.444;8.334;2024-03-07T04:32:30;34.38;;;27.35;;
29688;SDS011;16600;47.444;8.334;2024-03-07T04:34:59;39.30;;;30.27;;
29688;SDS011;16600;47.444;8.334;2024-03-07T04:37:26;45.00;;;31.63;;
29688;SDS011;16600;47.444;8.334;2024-03-07T04:39:56;34.95;;;28.50;;
29688;SDS011;16600;47.444;8.334;2024-03-07T04:42:22;42.63;;;32.45;;
29688;SDS011;16600;47.444;8.334;2024-03-07T04:44:51;44.85;;;34.05;;
29688;SDS011;16600;47.444;8.334;2024-03-07T04:47:23;50.20;;;36.38;;
29688;SDS011;16600;47.444;8.334;2024-03-07T04:49:49;53.88;;;36.05;;
29688;SDS011;16600;47.444;8.334;2024-03-07T04:52:16;41.65;;;33.00;;
29688;SDS011;16600;47.444;8.334;2024-03-07T04:54:42;52.03;;;36.28;;
29688;SDS011;16600;47.444;8.334;2024-03-07T04:57:18;42.23;;;33.17;;
29688;SDS011;16600;47.444;8.334;2024-03-07T04:59:45;37.33;;;31.05;;
29688;SDS011;16600;47.444;8.334;2024-03-07T05:03:02;39.17;;;31.77;;
29688;SDS011;16600;47.444;8.334;2024-03-07T05:05:29;36.70;;;29.88;;
29688;SDS011;16600;47.444;8.334;2024-03-07T05:07:56;34.35;;;28.27;;
29688;SDS011;16600;47.444;8.334;2024-03-07T05:12:50;35.92;;;28.10;;
29688;SDS011;16600;47.444;8.334;2024-03-07T05:15:17;33.85;;;26.80;;
29688;SDS011;16600;47.444;8.334;2024-03-07T05:17:43;32.33;;;28.13;;
29688;SDS011;16600;47.444;8.334;2024-03-07T05:20:12;36.00;;;29.33;;
29688;SDS011;16600;47.444;8.334;2024-03-07T05:22:44;30.75;;;26.95;;
29688;SDS011;16600;47.444;8.334;2024-03-07T05:25:16;43.45;;;28.50;;
29688;SDS011;16600;47.444;8.334;2024-03-07T05:27:57;33.10;;;26.98;;
29688;SDS011;16600;47.444;8.334;2024-03-07T05:30:33;35.83;;;29.00;;
29688;SDS011;16600;47.444;8.334;2024-03-07T05:33:05;30.65;;;27.17;;
29688;SDS011;16600;47.444;8.334;2024-03-07T05:35:34;35.60;;;28.63;;
29688;SDS011;16600;47.444;8.334;2024-03-07T05:38:06;35.38;;;28.63;;
29688;SDS011;16600;47.444;8.334;2024-03-07T05:40:40;29.50;;;25.05;;
29688;SDS011;16600;47.444;8.334;2024-03-07T05:43:17;35.83;;;28.30;;
29688;SDS011;16600;47.444;8.334;2024-03-07T05:45:53;32.95;;;26.13;;
29688;SDS011;16600;47.444;8.334;2024-03-07T05:48:32;35.95;;;27.13;;
29688;SDS011;16600;47.444;8.334;2024-03-07T05:51:06;32.67;;;26.63;;
29688;SDS011;16600;47.444;8.334;2024-03-07T05:53:35;30.33;;;25.05;;
29688;SDS011;16600;47.444;8.334;2024-03-07T05:56:18;30.58;;;25.33;;
29688;SDS011;16600;47.444;8.334;2024-03-07T05:58:47;32.08;;;27.20;;
29688;SDS011;16600;47.444;8.334;2024-03-07T06:01:34;29.50;;;25.50;;
29688;SDS011;16600;47.444;8.334;2024-03-07T06:04:05;29.00;;;23.92;;
29688;SDS011;16600;47.444;8.334;2024-03-07T06:06:41;31.73;;;24.50;;
29688;SDS011;16600;47.444;8.334;2024-03-07T06:09:59;31.88;;;25.45;;
29688;SDS011;16600;47.444;8.334;2024-03-07T06:12:11;29.90;;;25.83;;
29688;SDS011;16600;47.444;8.334;2024-03-07T06:14:38;37.85;;;26.67;;
29688;SDS011;16600;47.444;8.334;2024-03-07T06:17:04;35.50;;;26.90;;
29688;SDS011;16600;47.444;8.334;2024-03-07T06:19:30;29.92;;;24.58;;
29688;SDS011;16600;47.444;8.334;2024-03-07T06:21:57;32.03;;;25.40;;
29688;SDS011;16600;47.444;8.334;2024-03-07T06:24:23;31.23;;;25.40;;
29688;SDS011;16600;47.444;8.334;2024-03-07T06:26:59;32.15;;;24.95;;
29688;SDS011;16600;47.444;8.334;2024-03-07T06:29:26;30.23;;;23.52;;
29688;SDS011;16600;47.444;8.334;2024-03-07T06:31:55;28.45;;;23.60;;
29688;SDS011;16600;47.444;8.334;2024-03-07T06:34:28;31.10;;;25.67;;
29688;SDS011;16600;47.444;8.334;2024-03-07T06:37:00;28.88;;;24.02;;
29688;SDS011;16600;47.444;8.334;2024-03-07T06:39:28;31.55;;;24.65;;
29688;SDS011;16600;47.444;8.334;2024-03-07T06:41:54;32.70;;;24.50;;
29688;SDS011;16600;47.444;8.334;2024-03-07T06:44:22;26.27;;;22.50;;
29688;SDS011;16600;47.444;8.334;2024-03-07T06:46:55;31.50;;;23.75;;
29688;SDS011;16600;47.444;8.334;2024-03-07T06:49:22;26.75;;;21.23;;
29688;SDS011;16600;47.444;8.334;2024-03-07T06:51:48;24.20;;;20.50;;
29688;SDS011;16600;47.444;8.334;2024-03-07T06:54:20;23.77;;;20.98;;
29688;SDS011;16600;47.444;8.334;2024-03-07T06:56:52;25.58;;;20.20;;
29688;SDS011;16600;47.444;8.334;2024-03-07T06:59:19;28.08;;;21.33;;
29688;SDS011;16600;47.444;8.334;2024-03-07T07:03:15;25.63;;;21.77;;
29688;SDS011;16600;47.444;8.334;2024-03-07T07:05:45;22.95;;;19.60;;
29688;SDS011;16600;47.444;8.334;2024-03-07T07:08:17;19.70;;;17.58;;
29688;SDS011;16600;47.444;8.334;2024-03-07T07:10:49;23.92;;;17.52;;
29688;SDS011;16600;47.444;8.334;2024-03-07T07:13:16;19.77;;;16.55;;
29688;SDS011;16600;47.444;8.334;2024-03-07T07:15:45;23.05;;;18.73;;
29688;SDS011;16600;47.444;8.334;2024-03-07T07:18:20;23.30;;;17.00;;
29688;SDS011;16600;47.444;8.334;2024-03-07T07:20:50;20.10;;;17.15;;
29688;SDS011;16600;47.444;8.334;2024-03-07T07:23:21;22.23;;;17.92;;
29688;SDS011;16600;47.444;8.334;2024-03-07T07:25:49;20.65;;;18.10;;
29688;SDS011;16600;47.444;8.334;2024-03-07T07:28:17;19.17;;;17.02;;
29688;SDS011;16600;47.444;8.334;2024-03-07T07:30:44;19.20;;;16.10;;
29688;SDS011;16600;47.444;8.334;2024-03-07T07:33:14;27.17;;;17.65;;
29688;SDS011;16600;47.444;8.334;2024-03-07T07:35:40;21.60;;;17.75;;
29688;SDS011;16600;47.444;8.334;2024-03-07T07:38:06;31.95;;;17.83;;
29688;SDS011;16600;47.444;8.334;2024-03-07T07:40:38;25.30;;;18.20;;
29688;SDS011;16600;47.444;8.334;2024-03-07T07:43:05;19.38;;;17.23;;
29688;SDS011;16600;47.444;8.334;2024-03-07T07:45:32;27.55;;;18.25;;
29688;SDS011;16600;47.444;8.334;2024-03-07T07:48:04;22.55;;;19.17;;
29688;SDS011;16600;47.444;8.334;2024-03-07T07:50:30;22.90;;;19.40;;
29688;SDS011;16600;47.444;8.334;2024-03-07T07:53:02;23.73;;;17.90;;
29688;SDS011;16600;47.444;8.334;2024-03-07T07:55:37;28.92;;;18.77;;
29688;SDS011;16600;47.444;8.334;2024-03-07T08:00:37;21.33;;;17.75;;
29688;SDS011;16600;47.444;8.334;2024-03-07T08:03:09;23.67;;;19.13;;
29688;SDS011;16600;47.444;8.334;2024-03-07T08:05:43;21.90;;;18.38;;
29688;SDS011;16600;47.444;8.334;2024-03-07T08:08:13;23.27;;;18.42;;
29688;SDS011;16600;47.444;8.334;2024-03-07T08:10:42;22.40;;;19.30;;
29688;SDS011;16600;47.444;8.334;2024-03-07T08:13:14;21.58;;;19.27;;
29688;SDS011;16600;47.444;8.334;2024-03-07T08:15:43;21.35;;;18.55;;
29688;SDS011;16600;47.444;8.334;2024-03-07T08:18:12;26.52;;;18.02;;
29688;SDS011;16600;47.444;8.334;2024-03-07T08:20:43;23.60;;;19.30;;
29688;SDS011;16600;47.444;8.334;2024-03-07T08:23:10;23.60;;;20.08;;
29688;SDS011;16600;47.444;8.334;2024-03-07T08:25:36;23.83;;;18.70;;
29688;SDS011;16600;47.444;8.334;2024-03-07T08:28:08;24.63;;;17.95;;
29688;SDS011;16600;47.444;8.334;2024-03-07T08:30:34;22.98;;;19.38;;
29688;SDS011;16600;47.444;8.334;2024-03-07T08:33:01;28.35;;;19.77;;
29688;SDS011;16600;47.444;8.334;2024-03-07T08:35:30;23.85;;;19.25;;
29688;SDS011;16600;47.444;8.334;2024-03-07T08:37:56;23.73;;;17.80;;
29688;SDS011;16600;47.444;8.334;2024-03-07T08:40:23;24.85;;;18.98;;
29688;SDS011;16600;47.444;8.334;2024-03-07T08:42:52;20.08;;;17.95;;
29688;SDS011;16600;47.444;8.334;2024-03-07T08:45:21;20.58;;;18.25;;
29688;SDS011;16600;47.444;8.334;2024-03-07T08:47:48;22.85;;;17.77;;
29688;SDS011;16600;47.444;8.334;2024-03-07T08:50:18;22.70;;;17.98;;
29688;SDS011;16600;47.444;8.334;2024-03-07T08:52:48;24.65;;;19.13;;
29688;SDS011;16600;47.444;8.334;2024-03-07T08:55:20;20.17;;;17.48;;
29688;SDS011;16600;47.444;8.334;2024-03-07T08:57:47;19.60;;;17.33;;
29688;SDS011;16600;47.444;8.334;2024-03-07T09:03:13;22.60;;;18.03;;
29688;SDS011;16600;47.444;8.334;2024-03-07T09:05:40;21.27;;;16.55;;
29688;SDS011;16600;47.444;8.334;2024-03-07T09:08:07;20.00;;;17.85;;
29688;SDS011;16600;47.444;8.334;2024-03-07T09:10:33;20.10;;;17.45;;
29688;SDS011;16600;47.444;8.334;2024-03-07T09:13:03;19.75;;;16.70;;
29688;SDS011;16600;47.444;8.334;2024-03-07T09:15:35;18.33;;;15.70;;
29688;SDS011;16600;47.444;8.334;2024-03-07T09:18:07;21.55;;;16.27;;
29688;SDS011;16600;47.444;8.334;2024-03-07T09:20:45;23.02;;;16.45;;
29688;SDS011;16600;47.444;8.334;2024-03-07T09:23:12;22.00;;;17.23;;
29688;SDS011;16600;47.444;8.334;2024-03-07T09:25:38;22.27;;;16.08;;
29688;SDS011;16600;47.444;8.334;2024-03-07T09:28:08;26.25;;;17.13;;
29688;SDS011;16600;47.444;8.334;2024-03-07T09:30:36;17.27;;;15.48;;
29688;SDS011;16600;47.444;8.334;2024-03-07T09:33:04;21.38;;;16.35;;
29688;SDS011;16600;47.444;8.334;2024-03-07T09:35:33;22.45;;;16.52;;
29688;SDS011;16600;47.444;8.334;2024-03-07T09:37:59;25.60;;;15.95;;
29688;SDS011;16600;47.444;8.334;2024-03-07T09:40:33;19.55;;;17.13;;
29688;SDS011;16600;47.444;8.334;2024-03-07T09:42:59;22.25;;;16.63;;
29688;SDS011;16600;47.444;8.334;2024-03-07T09:45:32;21.60;;;17.70;;
29688;SDS011;16600;47.444;8.334;2024-03-07T09:48:06;20.17;;;16.90;;
29688;SDS011;16600;47.444;8.334;2024-03-07T09:50:35;25.75;;;18.98;;
29688;SDS011;16600;47.444;8.334;2024-03-07T09:53:02;23.80;;;18.48;;
29688;SDS011;16600;47.444;8.334;2024-03-07T09:55:28;24.38;;;19.42;;
29688;SDS011;16600;47.444;8.334;2024-03-07T09:57:55;23.95;;;18.48;;
29688;SDS011;16600;47.444;8.334;2024-03-07T10:00:25;28.70;;;19.63;;
29688;SDS011;16600;47.444;8.334;2024-03-07T10:02:56;29.17;;;19.00;;
29688;SDS011;16600;47.444;8.334;2024-03-07T10:05:31;24.55;;;18.60;;
29688;SDS011;16600;47.444;8.334;2024-03-07T10:07:58;23.35;;;18.98;;
29688;SDS011;16600;47.444;8.334;2024-03-07T10:10:27;26.95;;;18.83;;
29688;SDS011;16600;47.444;8.334;2024-03-07T10:13:02;23.58;;;17.98;;
29688;SDS011;16600;47.444;8.334;2024-03-07T10:15:30;23.15;;;18.35;;
29688;SDS011;16600;47.444;8.334;2024-03-07T10:18:11;23.75;;;17.75;;
29688;SDS011;16600;47.444;8.334;2024-03-07T10:20:41;27.25;;;19.00;;
29688;SDS011;16600;47.444;8.334;2024-03-07T10:23:17;22.70;;;18.10;;
29688;SDS011;16600;47.444;8.334;2024-03-07T10:25:50;21.38;;;17.77;;
29688;SDS011;16600;47.444;8.334;2024-03-07T10:28:26;22.02;;;17.17;;
29688;SDS011;16600;47.444;8.334;2024-03-07T10:30:55;22.58;;;17.27;;
29688;SDS011;16600;47.444;8.334;2024-03-07T10:33:26;27.95;;;19.08;;
29688;SDS011;16600;47.444;8.334;2024-03-07T10:35:53;25.00;;;17.83;;
29688;SDS011;16600;47.444;8.334;2024-03-07T10:38:23;23.35;;;18.58;;
29688;SDS011;16600;47.444;8.334;2024-03-07T10:40:54;25.95;;;19.02;;
29688;SDS011;16600;47.444;8.334;2024-03-07T10:43:24;28.70;;;18.70;;
29688;SDS011;16600;47.444;8.334;2024-03-07T10:45:55;39.30;;;19.70;;
29688;SDS011;16600;47.444;8.334;2024-03-07T10:48:23;43.45;;;19.02;;
29688;SDS011;16600;47.444;8.334;2024-03-07T10:58:26;27.02;;;18.98;;
29688;SDS011;16600;47.444;8.334;2024-03-07T11:03:05;26.83;;;19.00;;
29688;SDS011;16600;47.444;8.334;2024-03-07T11:05:35;26.15;;;20.60;;
29688;SDS011;16600;47.444;8.334;2024-03-07T11:08:01;31.25;;;21.27;;
29688;SDS011;16600;47.444;8.334;2024-03-07T11:10:36;30.92;;;22.25;;
29688;SDS011;16600;47.444;8.334;2024-03-07T11:13:09;26.13;;;20.90;;
29688;SDS011;16600;47.444;8.334;2024-03-07T11:15:41;25.33;;;20.50;;
29688;SDS011;16600;47.444;8.334;2024-03-07T11:18:14;28.63;;;21.48;;
29688;SDS011;16600;47.444;8.334;2024-03-07T11:20:50;24.80;;;19.55;;
29688;SDS011;16600;47.444;8.334;2024-03-07T11:23:33;28.60;;;21.65;;
29688;SDS011;16600;47.444;8.334;2024-03-07T11:26:07;28.77;;;20.25;;
29688;SDS011;16600;47.444;8.334;2024-03-07T11:28:40;26.33;;;20.67;;
29688;SDS011;16600;47.444;8.334;2024-03-07T11:31:08;26.90;;;21.52;;
29688;SDS011;16600;47.444;8.334;2024-03-07T11:33:38;29.65;;;20.67;;
29688;SDS011;16600;47.444;8.334;2024-03-07T11:36:19;34.55;;;22.08;;
29688;SDS011;16600;47.444;8.334;2024-03-07T11:39:04;29.75;;;21.08;;
29688;SDS011;16600;47.444;8.334;2024-03-07T11:41:49;30.88;;;21.50;;
29688;SDS011;16600;47.444;8.334;2024-03-07T11:44:19;29.63;;;21.83;;
29688;SDS011;16600;47.444;8.334;2024-03-07T11:46:45;33.25;;;22.42;;
29688;SDS011;16600;47.444;8.334;2024-03-07T11:49:12;31.10;;;22.27;;
29688;SDS011;16600;47.444;8.334;2024-03-07T11:51:41;32.83;;;20.77;;
29688;SDS011;16600;47.444;8.334;2024-03-07T11:54:08;32.20;;;22.08;;
29688;SDS011;16600;47.444;8.334;2024-03-07T11:56:34;30.05;;;21.70;;
29688;SDS011;16600;47.444;8.334;2024-03-07T11:59:00;26.00;;;20.58;;
29688;SDS011;16600;47.444;8.334;2024-03-07T12:01:32;32.00;;;20.73;;
29688;SDS011;16600;47.444;8.334;2024-03-07T12:03:59;29.83;;;21.00;;
29688;SDS011;16600;47.444;8.334;2024-03-07T12:06:28;34.28;;;21.30;;
29688;SDS011;16600;47.444;8.334;2024-03-07T12:09:01;31.33;;;22.05;;
29688;SDS011;16600;47.444;8.334;2024-03-07T12:11:32;29.67;;;21.15;;
29688;SDS011;16600;47.444;8.334;2024-03-07T12:14:01;24.23;;;18.52;;
29688;SDS011;16600;47.444;8.334;2024-03-07T12:16:29;27.55;;;20.17;;
29688;SDS011;16600;47.444;8.334;2024-03-07T12:18:55;25.83;;;18.77;;
29688;SDS011;16600;47.444;8.334;2024-03-07T12:21:21;25.92;;;19.83;;
29688;SDS011;16600;47.444;8.334;2024-03-07T12:23:53;29.08;;;21.42;;
29688;SDS011;16600;47.444;8.334;2024-03-07T12:26:20;26.77;;;20.17;;
29688;SDS011;16600;47.444;8.334;2024-03-07T12:28:51;24.15;;;18.48;;
29688;SDS011;16600;47.444;8.334;2024-03-07T12:31:23;22.10;;;17.83;;
29688;SDS011;16600;47.444;8.334;2024-03-07T12:33:52;25.48;;;17.85;;
29688;SDS011;16600;47.444;8.334;2024-03-07T12:36:21;22.77;;;17.92;;
29688;SDS011;16600;47.444;8.334;2024-03-07T12:38:52;26.23;;;18.42;;
29688;SDS011;16600;47.444;8.334;2024-03-07T12:41:22;22.48;;;19.33;;
29688;SDS011;16600;47.444;8.334;2024-03-07T12:43:48;21.00;;;17.67;;
29688;SDS011;16600;47.444;8.334;2024-03-07T12:46:17;27.63;;;18.33;;
29688;SDS011;16600;47.444;8.334;2024-03-07T12:48:44;21.40;;;17.95;;
29688;SDS011;16600;47.444;8.334;2024-03-07T12:51:17;22.65;;;17.92;;
29688;SDS011;16600;47.444;8.334;2024-03-07T12:53:43;30.77;;;19.33;;
29688;SDS011;16600;47.444;8.334;2024-03-07T12:56:09;24.15;;;19.90;;
29688;SDS011;16600;47.444;8.334;2024-03-07T12:58:42;23.40;;;18.33;;
29688;SDS011;16600;47.444;8.334;2024-03-07T13:03:05;22.03;;;18.53;;
29688;SDS011;16600;47.444;8.334;2024-03-07T13:05:35;22.48;;;19.45;;
29688;SDS011;16600;47.444;8.334;2024-03-07T13:08:13;38.88;;;21.08;;
29688;SDS011;16600;47.444;8.334;2024-03-07T13:10:45;27.98;;;19.10;;
29688;SDS011;16600;47.444;8.334;2024-03-07T13:13:17;31.25;;;20.67;;
29688;SDS011;16600;47.444;8.334;2024-03-07T13:15:46;27.70;;;20.45;;
29688;SDS011;16600;47.444;8.334;2024-03-07T13:18:21;29.88;;;19.10;;
29688;SDS011;16600;47.444;8.334;2024-03-07T13:20:47;23.02;;;18.58;;
29688;SDS011;16600;47.444;8.334;2024-03-07T13:23:17;29.35;;;19.65;;
29688;SDS011;16600;47.444;8.334;2024-03-07T13:25:46;24.90;;;19.13;;
29688;SDS011;16600;47.444;8.334;2024-03-07T13:28:25;28.40;;;19.00;;
29688;SDS011;16600;47.444;8.334;2024-03-07T13:30:54;23.52;;;17.70;;
29688;SDS011;16600;47.444;8.334;2024-03-07T13:33:21;27.70;;;18.98;;
29688;SDS011;16600;47.444;8.334;2024-03-07T13:35:53;28.52;;;19.15;;
29688;SDS011;16600;47.444;8.334;2024-03-07T13:38:31;25.15;;;17.45;;
29688;SDS011;16600;47.444;8.334;2024-03-07T13:40:57;24.05;;;17.55;;
29688;SDS011;16600;47.444;8.334;2024-03-07T13:43:30;29.70;;;17.65;;
29688;SDS011;16600;47.444;8.334;2024-03-07T13:46:05;20.70;;;16.05;;
29688;SDS011;16600;47.444;8.334;2024-03-07T13:48:32;26.67;;;15.90;;
29688;SDS011;16600;47.444;8.334;2024-03-07T13:51:02;21.85;;;16.42;;
29688;SDS011;16600;47.444;8.334;2024-03-07T13:53:33;21.33;;;16.05;;
29688;SDS011;16600;47.444;8.334;2024-03-07T14:01:31;21.93;;;16.83;;
29688;SDS011;16600;47.444;8.334;2024-03-07T14:25:26;24.08;;;16.63;;
29688;SDS011;16600;47.444;8.334;2024-03-07T14:33:23;18.83;;;15.55;;
29688;SDS011;16600;47.444;8.334;2024-03-07T14:38:42;18.75;;;14.95;;
29688;SDS011;16600;47.444;8.334;2024-03-07T14:41:12;17.75;;;15.50;;
29688;SDS011;16600;47.444;8.334;2024-03-07T14:43:52;20.75;;;15.88;;
29688;SDS011;16600;47.444;8.334;2024-03-07T14:46:27;18.40;;;15.57;;
29688;SDS011;16600;47.444;8.334;2024-03-07T14:48:57;21.50;;;16.58;;
29688;SDS011;16600;47.444;8.334;2024-03-07T14:51:24;24.60;;;17.42;;
29688;SDS011;16600;47.444;8.334;2024-03-07T14:53:53;21.65;;;16.83;;
29688;SDS011;16600;47.444;8.334;2024-03-07T14:56:22;25.25;;;15.88;;
29688;SDS011;16600;47.444;8.334;2024-03-07T14:58:57;20.40;;;16.45;;
29688;SDS011;16600;47.444;8.334;2024-03-07T15:03:02;21.07;;;17.03;;
29688;SDS011;16600;47.444;8.334;2024-03-07T15:05:36;21.20;;;16.38;;
29688;SDS011;16600;47.444;8.334;2024-03-07T15:08:11;20.08;;;16.45;;
29688;SDS011;16600;47.444;8.334;2024-03-07T15:10:42;22.35;;;16.67;;
29688;SDS011;16600;47.444;8.334;2024-03-07T15:13:12;29.27;;;18.13;;
29688;SDS011;16600;47.444;8.334;2024-03-07T15:15:39;34.65;;;17.17;;
29688;SDS011;16600;47.444;8.334;2024-03-07T15:18:10;25.15;;;17.77;;
29688;SDS011;16600;47.444;8.334;2024-03-07T15:20:39;24.10;;;16.60;;
29688;SDS011;16600;47.444;8.334;2024-03-07T15:23:14;22.83;;;18.05;;
29688;SDS011;16600;47.444;8.334;2024-03-07T15:25:51;31.15;;;23.70;;
29688;SDS011;16600;47.444;8.334;2024-03-07T15:28:21;35.80;;;24.42;;
29688;SDS011;16600;47.444;8.334;2024-03-07T15:30:56;33.50;;;23.55;;
29688;SDS011;16600;47.444;8.334;2024-03-07T15:33:26;37.65;;;26.55;;
29688;SDS011;16600;47.444;8.334;2024-03-07T15:36:04;42.27;;;30.63;;